Time;durP1;ratioP1;P1;durP2;ratioP2;P2;SDS_P1;SDS_P2;PMS_P1;PMS_P2;Temp;Humidity;BMP_temperature;BMP_pressure;BME280_temperature;BME280_humidity;BME280_pressure;Samples;Min_cycle;Max_cycle;Signal;HPM_P1;HPM_P2
2021/08/09 00:00:21;;;;;;;1.20;1.10;;;16.30;99.90;16.00;97003.00;;;;5069851;28;20188;-70
2021/08/09 00:03:10;;;;;;;1.00;0.90;;;16.80;99.90;16.00;96993.00;;;;5068605;28;20223;-70
2021/08/09 00:06:01;;;;;;;1.50;1.00;;;16.30;99.90;16.00;96984.00;;;;5068024;28;20208;-70
2021/08/09 00:08:49;;;;;;;1.23;0.93;;;16.30;99.90;16.00;96980.00;;;;5068186;28;20228;-70
2021/08/09 00:11:38;;;;;;;2.33;1.20;;;16.20;99.90;15.80;96996.00;;;;5068131;28;20740;-70
2021/08/09 00:14:28;;;;;;;1.43;1.10;;;16.20;99.90;15.60;96998.00;;;;5069489;28;20207;-70
2021/08/09 00:17:16;;;;;;;2.37;1.23;;;16.10;99.90;15.70;97005.00;;;;5068919;28;20736;-70
2021/08/09 00:20:07;;;;;;;0.70;0.70;;;16.10;99.90;15.70;97004.00;;;;5069809;28;20192;-70
2021/08/09 00:22:58;;;;;;;1.20;1.10;;;16.00;99.90;15.70;97000.00;;;;5068100;28;20204;-70
2021/08/09 00:25:47;;;;;;;1.00;0.93;;;16.00;99.90;15.70;97004.00;;;;5068733;28;20199;-70
2021/08/09 00:28:36;;;;;;;1.93;1.20;;;16.00;99.90;15.80;97010.00;;;;5068252;28;20574;-70
2021/08/09 00:31:25;;;;;;;1.10;1.00;;;16.00;99.90;15.80;97012.00;;;;5068474;28;20302;-70
2021/08/09 00:34:14;;;;;;;1.63;1.17;;;16.00;99.90;15.70;97008.00;;;;5067376;28;20258;-70
2021/08/09 00:37:03;;;;;;;2.20;1.20;;;16.00;99.90;15.60;97006.00;;;;5067672;28;20218;-70
2021/08/09 00:39:53;;;;;;;1.17;1.07;;;15.90;99.90;15.70;97014.00;;;;5069022;28;20560;-70
2021/08/09 00:42:42;;;;;;;1.57;1.10;;;15.90;99.90;15.50;97006.00;;;;5068036;28;20226;-70
2021/08/09 00:45:31;;;;;;;1.93;1.10;;;15.90;99.90;15.60;97019.00;;;;5067301;28;20207;-70
2021/08/09 00:48:20;;;;;;;3.47;1.00;;;15.80;99.90;15.50;97010.00;;;;5067492;28;20200;-70
2021/08/09 00:51:11;;;;;;;2.40;0.80;;;15.80;99.90;15.50;97012.00;;;;5067424;28;20216;-70
2021/08/09 00:54:00;;;;;;;0.87;0.87;;;15.80;99.90;15.30;97011.00;;;;5068145;28;20200;-70
2021/08/09 00:56:50;;;;;;;2.97;1.30;;;15.70;99.90;15.30;97007.00;;;;5068027;28;20200;-70
2021/08/09 00:59:39;;;;;;;2.47;0.97;;;15.70;99.90;15.10;97001.00;;;;5067071;28;20204;-70
2021/08/09 01:02:28;;;;;;;1.10;0.70;;;15.60;99.90;15.10;97010.00;;;;5067733;28;20219;-69
2021/08/09 01:05:17;;;;;;;0.80;0.80;;;15.50;99.90;14.90;97020.00;;;;5067206;28;20207;-69
2021/08/09 01:08:19;;;;;;;1.63;0.97;;;15.40;99.90;14.90;97023.00;;;;5066725;28;20206;-70
2021/08/09 01:11:28;;;;;;;0.80;0.80;;;15.40;99.90;14.90;97019.00;;;;5067655;28;20230;-69
2021/08/09 01:14:37;;;;;;;0.80;0.80;;;15.30;99.90;14.70;97020.00;;;;5066295;28;20195;-70
2021/08/09 01:17:30;;;;;;;0.97;0.70;;;15.20;99.90;14.60;97022.00;;;;5066073;28;20204;-70
2021/08/09 01:20:32;;;;;;;2.03;0.80;;;15.10;99.90;14.70;97018.00;;;;5067518;28;20198;-70
2021/08/09 01:23:31;;;;;;;1.50;0.60;;;15.10;99.90;14.50;97017.00;;;;5067615;28;20204;-69
2021/08/09 01:26:34;;;;;;;1.03;0.67;;;15.00;99.90;14.50;97025.00;;;;5066451;28;20509;-70
2021/08/09 01:29:35;;;;;;;2.57;0.60;;;14.90;99.90;14.40;97028.00;;;;5067232;28;20227;-69
2021/08/09 01:32:25;;;;;;;1.03;0.97;;;14.90;99.90;14.40;97037.00;;;;5067072;28;20223;-69
2021/08/09 01:35:17;;;;;;;0.70;0.70;;;14.80;99.90;14.40;97038.00;;;;5066544;28;20200;-70
2021/08/09 01:38:06;;;;;;;2.63;1.00;;;14.80;99.90;14.40;97041.00;;;;5066885;28;20256;-70
2021/08/09 01:40:57;;;;;;;0.73;0.73;;;14.70;99.90;14.30;97045.00;;;;5071077;28;20230;-70
2021/08/09 01:43:47;;;;;;;0.77;0.77;;;14.90;99.90;14.10;97040.00;;;;5060165;28;20196;-70
2021/08/09 01:46:38;;;;;;;0.73;0.73;;;14.90;99.90;14.20;97046.00;;;;5065812;28;20206;-69
2021/08/09 01:49:27;;;;;;;1.27;0.80;;;14.60;99.90;14.10;97046.00;;;;5066682;28;20216;-70
2021/08/09 01:52:17;;;;;;;1.67;0.80;;;14.60;99.90;13.90;97055.00;;;;5066016;28;20235;-70
2021/08/09 01:55:10;;;;;;;0.90;0.90;;;14.50;99.90;14.00;97052.00;;;;5066334;28;20582;-70
2021/08/09 01:57:58;;;;;;;1.47;0.77;;;14.40;99.90;14.10;97055.00;;;;5067152;28;20199;-70
2021/08/09 02:00:49;;;;;;;0.93;0.80;;;14.40;99.90;14.00;97051.00;;;;5065942;28;20224;-70
2021/08/09 02:03:40;;;;;;;2.10;0.67;;;14.40;99.90;13.90;97056.00;;;;5066415;28;20227;-70
2021/08/09 02:06:29;;;;;;;1.03;1.03;;;14.40;99.90;13.90;97053.00;;;;5067112;28;20200;-70
2021/08/09 02:09:18;;;;;;;1.33;1.00;;;14.30;99.90;13.80;97056.00;;;;5067081;28;20210;-70
2021/08/09 02:12:08;;;;;;;0.67;0.67;;;14.30;99.90;13.90;97063.00;;;;5066204;28;20721;-70
2021/08/09 02:15:02;;;;;;;1.03;0.90;;;14.30;99.90;13.90;97065.00;;;;5066480;28;20200;-69
2021/08/09 02:17:58;;;;;;;3.00;0.90;;;14.20;99.90;13.90;97084.00;;;;5065312;28;20582;-70
2021/08/09 02:20:51;;;;;;;2.87;0.90;;;14.20;99.90;13.90;97084.00;;;;5067487;28;20298;-70
2021/08/09 02:23:47;;;;;;;2.63;0.77;;;14.60;99.90;13.90;97081.00;;;;5065584;28;20222;-69
2021/08/09 02:26:44;;;;;;;2.13;1.23;;;14.20;99.90;13.90;97095.00;;;;5066371;28;20203;-70
2021/08/09 02:29:35;;;;;;;5.50;1.10;;;14.20;99.90;13.90;97096.00;;;;5066683;28;20204;-70
2021/08/09 02:32:30;;;;;;;1.77;0.90;;;14.20;99.90;14.00;97099.00;;;;5066468;28;20215;-69
2021/08/09 02:35:21;;;;;;;0.87;0.87;;;14.30;99.90;13.90;97111.00;;;;5066220;28;20207;-69
2021/08/09 02:38:13;;;;;;;2.80;0.90;;;14.30;99.90;13.90;97109.00;;;;5066353;28;20673;-69
2021/08/09 02:41:03;;;;;;;0.80;0.80;;;14.20;99.90;13.80;97116.00;;;;5066567;28;20223;-70
2021/08/09 02:43:53;;;;;;;0.67;0.67;;;14.20;99.90;13.80;97118.00;;;;5064563;28;20195;-70
2021/08/09 02:46:43;;;;;;;0.80;0.80;;;14.20;99.90;13.70;97115.00;;;;5079345;28;20194;-70
2021/08/09 02:49:32;;;;;;;3.20;0.97;;;14.20;99.90;13.60;97118.00;;;;5091965;28;20213;-70
2021/08/09 02:52:22;;;;;;;1.20;1.07;;;14.20;99.90;13.70;97128.00;;;;5092631;28;20313;-70
2021/08/09 02:55:17;;;;;;;5.60;1.07;;;14.10;99.90;13.60;97118.00;;;;5091953;28;20214;-70
2021/08/09 02:58:07;;;;;;;0.83;0.77;;;14.10;99.90;13.80;97133.00;;;;5092993;28;20202;-70
2021/08/09 03:00:57;;;;;;;1.23;0.93;;;14.10;99.90;13.80;97136.00;;;;5092622;28;20728;-70
2021/08/09 03:03:51;;;;;;;2.87;0.90;;;14.20;99.90;14.00;97152.00;;;;5091720;28;20214;-70
2021/08/09 03:06:40;;;;;;;1.37;1.10;;;14.20;99.90;14.10;97137.00;;;;5092186;28;20198;-69
2021/08/09 03:09:29;;;;;;;0.80;0.80;;;14.20;99.90;14.20;97141.00;;;;5061532;28;20201;-69
2021/08/09 03:12:20;;;;;;;1.00;0.90;;;14.30;99.90;14.10;97146.00;;;;5051776;28;20266;-70
2021/08/09 03:15:10;;;;;;;0.60;0.60;;;14.30;99.90;14.10;97155.00;;;;5052089;28;20668;-70
2021/08/09 03:18:00;;;;;;;1.80;0.70;;;14.40;99.90;14.00;97154.00;;;;5052028;28;20204;-70
2021/08/09 03:20:49;;;;;;;1.47;0.97;;;14.30;99.90;13.90;97142.00;;;;5051368;28;20592;-70
2021/08/09 03:23:38;;;;;;;1.97;0.90;;;14.30;99.90;13.80;97146.00;;;;5051850;28;20710;-70
2021/08/09 03:26:27;;;;;;;1.17;0.90;;;14.30;99.90;13.80;97150.00;;;;5052684;28;20243;-70
2021/08/09 03:29:17;;;;;;;1.07;0.93;;;14.20;99.90;13.70;97160.00;;;;5053786;28;20231;-70
2021/08/09 03:32:07;;;;;;;0.90;0.90;;;14.10;99.90;13.80;97149.00;;;;5051919;28;20232;-70
2021/08/09 03:34:56;;;;;;;1.73;0.83;;;14.20;99.90;13.80;97143.00;;;;5052706;28;20707;-69
2021/08/09 03:37:45;;;;;;;0.70;0.70;;;14.10;99.90;13.80;97147.00;;;;5052930;28;20201;-69
2021/08/09 03:40:34;;;;;;;4.30;1.20;;;14.10;99.90;13.80;97152.00;;;;5052149;28;20205;-70
2021/08/09 03:43:23;;;;;;;1.77;1.20;;;14.10;99.90;13.60;97150.00;;;;5051574;28;20207;-70
2021/08/09 03:46:14;;;;;;;1.47;1.00;;;14.10;99.90;13.70;97150.00;;;;5067583;28;20241;-70
2021/08/09 03:49:07;;;;;;;0.77;0.77;;;14.00;99.90;13.70;97149.00;;;;5072099;28;20218;-70
2021/08/09 03:51:56;;;;;;;0.70;0.70;;;14.10;99.90;13.60;97160.00;;;;5071930;28;20246;-69
2021/08/09 03:54:45;;;;;;;1.20;0.90;;;14.00;99.90;13.60;97175.00;;;;5072461;28;20282;-69
2021/08/09 03:57:34;;;;;;;3.17;0.90;;;14.00;99.90;13.60;97180.00;;;;5068187;28;20570;-70
2021/08/09 04:00:23;;;;;;;0.80;0.63;;;13.90;99.90;13.60;97180.00;;;;5068993;28;20192;-70
2021/08/09 04:03:13;;;;;;;1.57;0.90;;;13.90;99.90;13.60;97176.00;;;;5068242;28;20239;-70
2021/08/09 04:06:02;;;;;;;1.47;1.10;;;14.00;99.90;13.50;97182.00;;;;5066723;28;20200;-69
2021/08/09 04:08:51;;;;;;;1.57;0.80;;;13.90;99.90;13.50;97178.00;;;;5068263;28;20314;-70
2021/08/09 04:11:40;;;;;;;1.67;0.93;;;13.90;99.90;13.50;97179.00;;;;5067804;28;20223;-69
2021/08/09 04:14:29;;;;;;;5.00;0.80;;;13.90;99.90;13.40;97184.00;;;;5067420;28;20203;-70
2021/08/09 04:17:18;;;;;;;1.10;1.00;;;13.80;99.90;13.30;97200.00;;;;5066929;28;20199;-69
2021/08/09 04:20:10;;;;;;;1.47;0.80;;;13.80;99.90;13.30;97203.00;;;;5069512;28;20208;-70
2021/08/09 04:22:59;;;;;;;1.23;1.13;;;13.80;99.90;13.30;97203.00;;;;5067611;28;20192;-70
2021/08/09 04:25:47;;;;;;;1.07;1.00;;;13.70;99.90;13.30;97206.00;;;;5067966;28;20200;-70
2021/08/09 04:28:36;;;;;;;2.43;1.00;;;13.70;99.90;13.30;97204.00;;;;5068498;28;20214;-70
2021/08/09 04:31:25;;;;;;;1.97;0.70;;;13.70;99.90;13.20;97207.00;;;;5077111;28;20231;-70
2021/08/09 04:34:15;;;;;;;1.20;1.07;;;13.70;99.90;13.20;97216.00;;;;5067997;28;20709;-69
2021/08/09 04:37:06;;;;;;;3.93;1.10;;;13.70;99.90;13.20;97222.00;;;;5067717;28;20260;-70
2021/08/09 04:39:54;;;;;;;1.03;0.80;;;13.70;99.90;13.20;97221.00;;;;5067933;28;20694;-70
2021/08/09 04:42:44;;;;;;;1.33;1.23;;;13.70;99.90;13.30;97214.00;;;;5067558;28;20512;-70
2021/08/09 04:45:33;;;;;;;0.83;0.80;;;13.60;99.90;13.20;97217.00;;;;5066072;28;20195;-69
2021/08/09 04:48:21;;;;;;;1.57;1.07;;;13.60;99.90;13.40;97216.00;;;;5068522;28;20211;-70
2021/08/09 04:51:10;;;;;;;0.80;0.80;;;13.70;99.90;13.30;97222.00;;;;5067616;28;20219;-69
2021/08/09 04:54:01;;;;;;;1.10;1.00;;;13.70;99.90;13.50;97231.00;;;;5067452;28;20204;-70
2021/08/09 04:56:49;;;;;;;1.30;1.20;;;13.70;99.90;13.60;97234.00;;;;5065454;28;20588;-70
2021/08/09 04:59:38;;;;;;;1.20;1.10;;;13.80;99.90;13.50;97233.00;;;;5068395;28;20219;-70
2021/08/09 05:02:27;;;;;;;1.10;1.00;;;13.80;99.90;13.50;97237.00;;;;5066985;28;20227;-69
2021/08/09 05:05:16;;;;;;;1.67;1.37;;;13.80;99.90;13.80;97240.00;;;;5067198;28;20204;-70
2021/08/09 05:08:05;;;;;;;2.27;1.13;;;13.90;99.90;14.00;97237.00;;;;5072460;28;20202;-69
2021/08/09 05:10:56;;;;;;;2.30;1.50;;;14.10;99.90;14.20;97235.00;;;;5087776;28;20226;-70
2021/08/09 05:13:46;;;;;;;1.23;1.13;;;14.20;99.90;14.10;97236.00;;;;5086204;28;20199;-69
2021/08/09 05:16:36;;;;;;;1.67;1.20;;;14.30;99.90;14.10;97236.00;;;;5086393;28;20207;-70
2021/08/09 05:19:25;;;;;;;1.73;0.97;;;14.30;99.90;14.10;97238.00;;;;5086535;28;20905;-70
2021/08/09 05:22:14;;;;;;;2.67;1.17;;;14.40;99.90;14.10;97245.00;;;;5088034;28;20215;-69
2021/08/09 05:25:08;;;;;;;2.30;1.07;;;14.40;99.90;14.20;97233.00;;;;5086573;28;20200;-69
2021/08/09 05:27:58;;;;;;;1.43;0.90;;;14.50;99.90;14.10;97233.00;;;;5087321;28;20206;-69
2021/08/09 05:30:48;;;;;;;2.30;0.93;;;14.50;99.90;14.40;97235.00;;;;5086570;28;20345;-69
2021/08/09 05:33:38;;;;;;;0.73;0.73;;;14.50;99.90;14.60;97230.00;;;;5085261;28;20255;-68
2021/08/09 05:36:27;;;;;;;3.47;0.77;;;14.60;99.90;14.70;97238.00;;;;5086462;28;20607;-69
2021/08/09 05:39:16;;;;;;;3.07;1.00;;;14.70;99.90;14.80;97227.00;;;;5087601;28;20453;-70
2021/08/09 05:42:05;;;;;;;2.83;1.33;;;14.90;99.90;14.80;97229.00;;;;5086148;28;20215;-70
2021/08/09 05:44:55;;;;;;;1.00;1.00;;;14.90;99.90;14.80;97236.00;;;;5085740;28;20551;-70
2021/08/09 05:47:44;;;;;;;1.10;1.00;;;15.00;99.90;14.70;97238.00;;;;5087005;28;20207;-70
2021/08/09 05:50:33;;;;;;;2.37;1.20;;;15.00;99.90;14.90;97245.00;;;;5087205;28;20210;-70
2021/08/09 05:53:26;;;;;;;4.30;1.00;;;15.10;99.90;15.20;97255.00;;;;5086765;28;20237;-69
2021/08/09 05:56:15;;;;;;;3.33;1.10;;;15.20;99.90;15.40;97260.00;;;;5069472;28;20203;-70
2021/08/09 05:59:04;;;;;;;2.37;1.00;;;15.30;99.90;15.50;97258.00;;;;5065718;28;20282;-70
2021/08/09 06:01:54;;;;;;;1.53;1.03;;;15.40;99.90;15.50;97261.00;;;;5065792;28;20224;-70
2021/08/09 06:04:43;;;;;;;1.27;1.17;;;15.50;99.90;15.70;97255.00;;;;5064717;28;20333;-70
2021/08/09 06:07:32;;;;;;;1.80;1.20;;;15.60;99.90;15.70;97270.00;;;;5067097;28;20204;-70
2021/08/09 06:10:23;;;;;;;1.27;0.90;;;15.80;99.90;15.70;97265.00;;;;5067670;28;20206;-70
2021/08/09 06:13:12;;;;;;;0.77;0.77;;;15.80;99.90;15.60;97270.00;;;;5065991;28;20216;-69
2021/08/09 06:16:01;;;;;;;4.03;1.40;;;15.80;99.90;15.70;97272.00;;;;5066257;28;20200;-69
2021/08/09 06:18:54;;;;;;;1.00;0.80;;;15.90;99.90;15.60;97278.00;;;;5066155;28;20208;-70
2021/08/09 06:21:43;;;;;;;1.63;1.20;;;15.90;99.90;15.80;97285.00;;;;5046898;28;20734;-69
2021/08/09 06:24:33;;;;;;;1.30;0.97;;;15.90;99.90;15.90;97278.00;;;;5046817;28;20639;-69
2021/08/09 06:27:21;;;;;;;1.07;0.97;;;16.00;99.90;16.00;97269.00;;;;5049695;28;20237;-69
2021/08/09 06:30:12;;;;;;;2.87;1.23;;;16.10;99.90;16.10;97271.00;;;;5064825;28;20214;-70
2021/08/09 06:33:01;;;;;;;2.63;1.20;;;16.10;99.90;16.30;97270.00;;;;5065295;28;20249;-70
2021/08/09 06:35:51;;;;;;;1.00;1.00;;;16.30;99.90;16.30;97269.00;;;;5046160;28;20200;-70
2021/08/09 06:38:41;;;;;;;1.30;1.20;;;16.40;99.90;16.30;97265.00;;;;5052452;28;20199;-70
2021/08/09 06:41:32;;;;;;;4.60;1.07;;;16.50;99.90;16.30;97265.00;;;;5065941;28;20571;-70
2021/08/09 06:44:21;;;;;;;2.43;1.17;;;16.50;99.90;16.30;97270.00;;;;5065560;28;20651;-70
2021/08/09 06:47:10;;;;;;;1.97;1.13;;;16.50;99.90;16.30;97272.00;;;;5066542;28;20195;-70
2021/08/09 06:49:59;;;;;;;1.90;1.30;;;16.50;99.90;16.50;97269.00;;;;5065414;28;20196;-70
2021/08/09 06:52:49;;;;;;;1.97;1.27;;;16.60;99.90;16.60;97273.00;;;;5066346;28;20588;-70
2021/08/09 06:55:38;;;;;;;5.30;2.37;;;16.60;99.90;16.80;97271.00;;;;5058918;28;20192;-70
2021/08/09 06:58:27;;;;;;;1.20;1.00;;;16.70;99.90;16.70;97272.00;;;;5064426;28;20196;-69
2021/08/09 07:01:16;;;;;;;1.13;1.03;;;16.80;99.90;16.90;97269.00;;;;5065490;28;20230;-69
2021/08/09 07:04:06;;;;;;;1.10;1.03;;;16.90;99.90;17.20;97272.00;;;;5065446;28;20196;-70
2021/08/09 07:06:55;;;;;;;1.30;1.10;;;17.00;99.90;17.30;97288.00;;;;5064559;28;20210;-69
2021/08/09 07:09:45;;;;;;;1.20;1.00;;;17.10;99.90;17.20;97283.00;;;;5065463;28;20200;-69
2021/08/09 07:12:34;;;;;;;2.23;1.23;;;17.20;99.90;17.30;97284.00;;;;5078118;28;20318;-70
2021/08/09 07:15:23;;;;;;;5.13;1.10;;;17.30;99.90;17.70;97277.00;;;;5076617;28;20717;-69
2021/08/09 07:18:12;;;;;;;4.90;2.47;;;17.40;99.90;17.70;97279.00;;;;5057256;28;20193;-69
2021/08/09 07:21:01;;;;;;;5.27;2.53;;;17.60;99.90;17.60;97283.00;;;;5054880;28;20231;-69
2021/08/09 07:23:49;;;;;;;3.70;1.97;;;17.70;99.90;17.90;97276.00;;;;5050983;28;20192;-69
2021/08/09 07:26:40;;;;;;;3.17;1.67;;;17.70;99.90;18.10;97286.00;;;;5058866;28;20572;-69
2021/08/09 07:29:31;;;;;;;2.20;1.83;;;17.90;99.90;18.00;97288.00;;;;5066448;28;20222;-69
2021/08/09 07:32:19;;;;;;;5.30;1.60;;;18.00;99.90;18.20;97295.00;;;;5065440;28;20315;-68
2021/08/09 07:35:10;;;;;;;2.10;1.40;;;18.10;99.90;18.20;97288.00;;;;5069187;28;20215;-69
2021/08/09 07:38:01;;;;;;;5.10;1.60;;;18.20;99.90;18.40;97288.00;;;;5069810;28;20199;-68
2021/08/09 07:40:50;;;;;;;2.70;1.27;;;18.30;99.90;18.70;97292.00;;;;5062163;28;20230;-69
2021/08/09 07:43:40;;;;;;;3.50;1.33;;;18.50;99.90;18.90;97287.00;;;;5060090;28;20219;-69
2021/08/09 07:46:29;;;;;;;3.70;1.40;;;18.70;99.90;18.90;97293.00;;;;5084188;28;20203;-69
2021/08/09 07:49:18;;;;;;;6.53;1.70;;;18.80;99.90;19.10;97291.00;;;;5070399;28;20258;-69
2021/08/09 07:52:08;;;;;;;1.90;1.47;;;18.90;99.90;19.10;97289.00;;;;5068152;28;20227;-69
2021/08/09 07:54:56;;;;;;;4.63;1.60;;;19.00;99.90;19.10;97301.00;;;;5068632;28;20210;-69
2021/08/09 07:57:45;;;;;;;5.50;1.63;;;19.10;99.90;19.10;97299.00;;;;5060639;28;20227;-69
2021/08/09 08:00:36;;;;;;;6.47;1.40;;;19.20;99.90;19.10;97297.00;;;;5059600;28;20205;-69
2021/08/09 08:03:25;;;;;;;2.87;1.60;;;19.20;99.90;19.30;97306.00;;;;5067224;28;20199;-69
2021/08/09 08:06:14;;;;;;;3.17;1.50;;;19.20;99.90;19.30;97308.00;;;;5077023;28;20209;-69
2021/08/09 08:09:03;;;;;;;3.40;1.37;;;19.30;99.90;19.20;97309.00;;;;5063924;28;20204;-69
2021/08/09 08:11:52;;;;;;;2.40;1.17;;;19.30;99.90;19.40;97305.00;;;;5047426;28;20221;-69
2021/08/09 08:14:41;;;;;;;2.97;0.93;;;20.30;99.90;19.40;97311.00;;;;5048066;28;20617;-68
2021/08/09 08:17:32;;;;;;;2.50;1.43;;;19.50;99.90;19.50;97314.00;;;;5048350;28;20201;-69
2021/08/09 08:20:21;;;;;;;6.90;1.70;;;19.50;99.90;19.50;97316.00;;;;5048413;28;20214;-68
2021/08/09 08:23:10;;;;;;;8.13;2.67;;;19.60;99.90;19.40;97304.00;;;;5067006;28;20200;-69
2021/08/09 08:25:59;;;;;;;3.37;1.13;;;19.60;99.90;18.90;97320.00;;;;5061363;28;20208;-69
2021/08/09 08:28:49;;;;;;;1.43;0.93;;;19.50;99.90;19.00;97316.00;;;;5068233;28;20729;-68
2021/08/09 08:31:38;;;;;;;1.47;1.37;;;19.40;99.90;19.10;97316.00;;;;5067524;28;20729;-69
2021/08/09 08:34:28;;;;;;;5.57;1.23;;;19.30;99.90;18.90;97311.00;;;;5066352;28;20212;-69
2021/08/09 08:37:17;;;;;;;2.07;1.10;;;19.20;99.90;19.00;97314.00;;;;5059684;28;20248;-69
2021/08/09 08:40:08;;;;;;;2.30;1.27;;;19.20;99.90;19.00;97321.00;;;;5066630;28;20204;-68
2021/08/09 08:42:57;;;;;;;2.87;1.00;;;19.20;99.90;18.90;97321.00;;;;5064052;28;20196;-69
2021/08/09 08:45:46;;;;;;;7.43;1.43;;;19.20;99.90;19.10;97318.00;;;;5054487;28;20224;-69
2021/08/09 08:48:37;;;;;;;1.83;1.33;;;19.20;99.90;19.40;97315.00;;;;5049079;28;20203;-69
2021/08/09 08:51:42;;;;;;;1.60;0.90;;;19.30;99.90;19.30;97311.00;;;;5056873;28;20215;-69
2021/08/09 08:54:32;;;;;;;2.10;0.90;;;19.30;99.90;19.40;97323.00;;;;5066529;28;20227;-69
2021/08/09 08:57:24;;;;;;;1.03;0.83;;;19.40;99.90;19.70;97328.00;;;;5066843;28;20742;-69
2021/08/09 09:00:14;;;;;;;2.73;0.73;;;19.50;99.90;19.90;97329.00;;;;5055757;28;20244;-69
2021/08/09 09:03:07;;;;;;;4.80;0.90;;;19.60;99.90;20.20;97321.00;;;;5061571;28;20196;-69
2021/08/09 09:06:01;;;;;;;2.83;1.13;;;19.80;99.90;20.20;97308.00;;;;5065816;28;20204;-69
2021/08/09 09:08:52;;;;;;;1.67;1.00;;;20.00;99.90;20.50;97315.00;;;;5063643;28;20231;-69
2021/08/09 09:11:41;;;;;;;5.47;1.33;;;20.20;99.90;20.70;97314.00;;;;5053139;28;20228;-69
2021/08/09 09:14:32;;;;;;;1.80;0.90;;;20.40;99.90;21.20;97320.00;;;;5066163;28;20215;-69
2021/08/09 09:17:33;;;;;;;1.90;1.30;;;20.60;99.90;21.60;97325.00;;;;5064026;28;20624;-69
2021/08/09 09:20:26;;;;;;;1.37;1.10;;;21.00;99.90;21.80;97331.00;;;;5063923;28;20207;-69
2021/08/09 09:23:16;;;;;;;4.63;1.00;;;21.20;99.90;21.90;97327.00;;;;5063309;28;20297;-69
2021/08/09 09:26:21;;;;;;;1.87;0.80;;;21.40;99.90;22.00;97339.00;;;;5061292;28;20207;-70
2021/08/09 09:29:12;;;;;;;1.47;1.00;;;21.70;99.90;22.40;97323.00;;;;5063936;28;20210;-70
2021/08/09 09:32:15;;;;;;;2.83;1.03;;;21.90;99.90;22.80;97322.00;;;;5066196;28;20212;-69
2021/08/09 09:35:05;;;;;;;2.10;0.93;;;22.20;99.90;22.60;97321.00;;;;5066601;28;20230;-69
2021/08/09 09:37:54;;;;;;;1.23;0.70;;;22.40;99.90;22.50;97325.00;;;;5067534;28;20667;-69
2021/08/09 09:40:44;;;;;;;3.87;1.17;;;22.50;99.90;22.60;97322.00;;;;5067119;28;20226;-69
2021/08/09 09:43:41;;;;;;;2.83;1.10;;;22.50;99.90;22.90;97328.00;;;;5067133;28;20576;-70
2021/08/09 09:46:30;;;;;;;0.73;0.70;;;22.50;99.90;23.30;97315.00;;;;5066801;28;20233;-69
2021/08/09 09:49:34;;;;;;;1.10;0.87;;;22.70;99.90;23.50;97320.00;;;;5065751;28;20206;-69
2021/08/09 09:52:35;;;;;;;1.37;0.83;;;22.90;99.90;22.70;97304.00;;;;5065841;28;20215;-69
2021/08/09 09:55:24;;;;;;;1.60;1.00;;;23.10;99.90;22.80;97314.00;;;;5064937;28;20362;-70
2021/08/09 09:58:13;;;;;;;1.17;1.03;;;23.00;99.90;23.30;97314.00;;;;5066913;28;20196;-69
2021/08/09 10:01:04;;;;;;;0.63;0.63;;;23.00;99.90;24.10;97298.00;;;;5070194;28;20222;-69
2021/08/09 10:03:53;;;;;;;1.10;1.00;;;23.30;99.90;24.60;97288.00;;;;5059584;28;20281;-70
2021/08/09 10:06:43;;;;;;;3.37;1.27;;;23.70;99.90;24.70;97286.00;;;;5065742;28;20203;-70
2021/08/09 10:09:32;;;;;;;1.67;0.90;;;24.10;99.90;24.90;97315.00;;;;5065927;28;20726;-70
2021/08/09 10:12:26;;;;;;;1.13;1.03;;;24.30;99.90;23.80;97299.00;;;;5066095;28;20222;-69
2021/08/09 10:15:19;;;;;;;1.80;1.00;;;24.20;99.90;24.10;97270.00;;;;5063107;28;20232;-69
2021/08/09 10:18:10;;;;;;;1.03;0.83;;;24.20;99.90;24.10;97264.00;;;;5063315;28;20202;-72
2021/08/09 10:21:03;;;;;;;1.77;1.03;;;24.30;99.90;23.50;97264.00;;;;5065349;28;20232;-71
2021/08/09 10:23:52;;;;;;;2.20;1.03;;;24.10;99.90;24.20;97297.00;;;;5061181;28;20205;-70
2021/08/09 10:26:48;;;;;;;0.90;0.90;;;24.00;99.90;24.90;97257.00;;;;5065140;28;20201;-70
2021/08/09 10:30:14;;;;;;;2.07;1.17;;;24.40;99.90;23.90;97247.00;;;;5064238;28;20209;-70
2021/08/09 10:33:08;;;;;;;8.07;1.27;;;24.30;99.90;23.30;97289.00;;;;5064387;28;20585;-71
2021/08/09 10:35:58;;;;;;;0.80;0.73;;;24.10;99.90;22.90;97286.00;;;;5065119;28;20200;-71
2021/08/09 10:38:49;;;;;;;2.03;0.80;;;23.60;99.90;23.40;97247.00;;;;5066887;28;20196;-71
2021/08/09 10:41:39;;;;;;;1.80;1.27;;;23.60;99.90;23.30;97284.00;;;;5058840;28;20224;-69
2021/08/09 10:44:28;;;;;;;2.47;1.07;;;23.60;99.90;22.90;97295.00;;;;5064654;28;20196;-71
2021/08/09 10:47:53;;;;;;;1.07;0.90;;;23.50;99.90;23.10;97280.00;;;;5064912;28;20606;-69
2021/08/09 10:50:51;;;;;;;2.10;0.93;;;23.30;99.90;25.10;97240.00;;;;5058522;28;20222;-71
2021/08/09 10:53:47;;;;;;;0.90;0.90;;;23.70;99.90;25.60;97237.00;;;;5066455;28;20195;-70
2021/08/09 10:56:47;;;;;;;1.17;1.07;;;24.40;99.90;25.80;97267.00;;;;5064114;28;20192;-70
2021/08/09 10:59:44;;;;;;;2.10;1.10;;;24.80;99.90;25.40;97223.00;;;;5066611;28;20211;-70
2021/08/09 11:02:35;;;;;;;1.20;1.10;;;24.80;99.70;25.90;97272.00;;;;5056151;28;20758;-69
2021/08/09 11:05:29;;;;;;;1.53;1.20;;;25.30;99.90;25.00;97272.00;;;;5059366;28;20205;-69
2021/08/09 11:08:39;;;;;;;2.27;1.10;;;25.10;98.00;24.70;97256.00;;;;5069198;28;20879;-70
2021/08/09 11:11:29;;;;;;;0.70;0.70;;;24.90;99.40;26.20;97258.00;;;;5067970;28;20264;-70
2021/08/09 11:14:18;;;;;;;0.93;0.77;;;25.30;99.90;25.40;97248.00;;;;5058717;28;20238;-71
2021/08/09 11:17:07;;;;;;;1.67;0.63;;;25.20;99.30;25.50;97236.00;;;;5068801;28;20199;-71
2021/08/09 11:20:11;;;;;;;3.00;1.10;;;25.30;98.80;26.10;97248.00;;;;5068747;28;20207;-71
2021/08/09 11:23:09;;;;;;;1.63;0.90;;;25.60;99.50;26.20;97204.00;;;;5062369;28;20199;-71
2021/08/09 11:25:58;;;;;;;1.07;0.90;;;25.80;98.10;26.60;97262.00;;;;5068437;28;20201;-71
2021/08/09 11:29:00;;;;;;;1.13;1.03;;;26.00;98.30;26.00;97248.00;;;;5068851;28;20202;-71
2021/08/09 11:31:50;;;;;;;1.77;1.10;;;25.90;97.70;26.70;97202.00;;;;5068185;28;20226;-71
2021/08/09 11:35:00;;;;;;;1.37;0.90;;;26.10;97.60;27.70;97252.00;;;;5068874;28;20223;-71
2021/08/09 11:37:57;;;;;;;1.27;0.87;;;27.00;96.60;27.20;97196.00;;;;5068257;28;20282;-71
2021/08/09 11:40:49;;;;;;;1.43;0.93;;;26.90;93.70;27.90;97227.00;;;;5068612;28;20281;-71
2021/08/09 11:43:39;;;;;;;1.53;1.00;;;27.20;94.50;27.20;97247.00;;;;5069466;28;20205;-71
2021/08/09 11:46:29;;;;;;;1.23;1.13;;;27.10;93.70;27.40;97223.00;;;;5067663;28;20201;-71
2021/08/09 11:49:21;;;;;;;1.07;0.70;;;27.10;93.00;28.00;97184.00;;;;5049834;28;20621;-71
2021/08/09 11:52:10;;;;;;;1.00;0.90;;;27.30;92.10;27.90;97191.00;;;;5049495;28;20227;-71
2021/08/09 11:54:59;;;;;;;1.08;0.95;;;27.70;91.00;28.20;97184.00;;;;5048102;28;20230;-71
2021/08/09 11:57:48;;;;;;;1.10;1.00;;;28.00;87.10;26.40;97164.00;;;;5048590;28;20203;-72
2021/08/09 12:00:40;;;;;;;1.43;1.00;;;27.60;78.60;25.20;97166.00;;;;5047646;28;20713;-71
2021/08/09 12:03:30;;;;;;;0.90;0.90;;;26.70;78.90;26.00;97175.00;;;;5059875;28;20256;-72
2021/08/09 12:06:26;;;;;;;0.70;0.70;;;26.50;80.50;26.20;97165.00;;;;5066447;28;20214;-73
2021/08/09 12:09:16;;;;;;;0.87;0.87;;;26.40;78.50;26.00;97149.00;;;;5068299;28;20209;-68
2021/08/09 12:12:09;;;;;;;0.80;0.80;;;26.50;80.30;25.30;97147.00;;;;5068528;28;20214;-68
2021/08/09 12:15:03;;;;;;;1.23;1.13;;;25.90;81.90;25.90;97151.00;;;;5068522;28;20943;-68
2021/08/09 12:18:10;;;;;;;0.93;0.80;;;25.80;83.10;25.40;97138.00;;;;5067260;28;20696;-68
2021/08/09 12:21:11;;;;;;;1.00;0.90;;;25.60;80.10;26.10;97156.00;;;;5067867;28;20222;-70
2021/08/09 12:24:01;;;;;;;1.00;0.70;;;25.80;81.00;27.20;97152.00;;;;5053941;28;20197;-68
2021/08/09 12:26:53;;;;;;;1.00;0.80;;;26.20;84.40;27.50;97145.00;;;;5067813;28;20209;-69
2021/08/09 12:29:59;;;;;;;0.97;0.70;;;26.70;81.80;26.10;97147.00;;;;5068375;28;20223;-69
2021/08/09 12:33:00;;;;;;;2.13;1.00;;;26.70;77.40;27.10;97142.00;;;;5062362;28;20205;-68
2021/08/09 12:35:49;;;;;;;1.30;0.80;;;26.60;77.90;26.00;97126.00;;;;5067617;28;20226;-67
2021/08/09 12:38:42;;;;;;;0.70;0.70;;;26.60;76.70;26.80;97140.00;;;;5049291;28;20198;-68
2021/08/09 12:41:33;;;;;;;1.17;0.90;;;26.50;78.30;27.70;97143.00;;;;5072331;28;20215;-68